sensor_id;sensor_type;location;lat;lon;timestamp;temperature;humidity
23562;DHT22;11959;49.418;8.728;2024-03-02T00:00:51;6.10;99.90
23562;DHT22;11959;49.418;8.728;2024-03-02T00:03:18;6.10;99.90
23562;DHT22;11959;49.418;8.728;2024-03-02T00:05:48;6.20;99.90
23562;DHT22;11959;49.418;8.728;2024-03-02T00:08:19;6.10;99.90
23562;DHT22;11959;49.418;8.728;2024-03-02T00:10:47;6.10;99.90
23562;DHT22;11959;49.418;8.728;2024-03-02T00:13:13;6.10;99.90
23562;DHT22;11959;49.418;8.728;2024-03-02T00:15:51;6.00;99.90
23562;DHT22;11959;49.418;8.728;2024-03-02T00:18:25;6.00;99.90
23562;DHT22;11959;49.418;8.728;2024-03-02T00:20:53;6.00;99.90
23562;DHT22;11959;49.418;8.728;2024-03-02T00:23:20;6.00;99.90
23562;DHT22;11959;49.418;8.728;2024-03-02T00:25:54;5.90;99.90
23562;DHT22;11959;49.418;8.728;2024-03-02T00:33:16;5.90;99.90
23562;DHT22;11959;49.418;8.728;2024-03-02T00:35:44;5.80;99.90
23562;DHT22;11959;49.418;8.728;2024-03-02T00:38:10;5.90;99.90
23562;DHT22;11959;49.418;8.728;2024-03-02T00:40:36;5.90;99.90
23562;DHT22;11959;49.418;8.728;2024-03-02T00:43:02;5.80;99.90
23562;DHT22;11959;49.418;8.728;2024-03-02T00:45:29;5.80;99.90
23562;DHT22;11959;49.418;8.728;2024-03-02T00:47:55;5.80;99.90
23562;DHT22;11959;49.418;8.728;2024-03-02T00:50:20;5.70;99.90
23562;DHT22;11959;49.418;8.728;2024-03-02T00:52:47;5.70;99.90
23562;DHT22;11959;49.418;8.728;2024-03-02T00:55:15;5.70;99.90
23562;DHT22;11959;49.418;8.728;2024-03-02T00:57:41;5.70;99.90
23562;DHT22;11959;49.418;8.728;2024-03-02T01:00:07;5.70;99.90
23562;DHT22;11959;49.418;8.728;2024-03-02T01:02:35;5.60;99.90
23562;DHT22;11959;49.418;8.728;2024-03-02T01:05:01;5.60;99.90
23562;DHT22;11959;49.418;8.728;2024-03-02T01:07:27;5.60;99.90
23562;DHT22;11959;49.418;8.728;2024-03-02T01:09:52;5.60;99.90
23562;DHT22;11959;49.418;8.728;2024-03-02T01:12:18;5.60;99.90
23562;DHT22;11959;49.418;8.728;2024-03-02T01:14:43;5.50;99.90
23562;DHT22;11959;49.418;8.728;2024-03-02T01:17:09;5.50;99.90
23562;DHT22;11959;49.418;8.728;2024-03-02T01:19:35;5.50;99.90
23562;DHT22;11959;49.418;8.728;2024-03-02T01:22:00;5.50;99.90
23562;DHT22;11959;49.418;8.728;2024-03-02T01:24:26;5.50;99.90
23562;DHT22;11959;49.418;8.728;2024-03-02T01:26:52;5.50;99.90
23562;DHT22;11959;49.418;8.728;2024-03-02T01:29:17;5.50;99.90
23562;DHT22;11959;49.418;8.728;2024-03-02T01:31:43;5.40;99.90
23562;DHT22;11959;49.418;8.728;2024-03-02T01:34:09;5.40;99.90
23562;DHT22;11959;49.418;8.728;2024-03-02T01:36:34;5.50;99.90
23562;DHT22;11959;49.418;8.728;2024-03-02T01:39:00;5.50;99.90
23562;DHT22;11959;49.418;8.728;2024-03-02T01:41:26;5.50;99.90
23562;DHT22;11959;49.418;8.728;2024-03-02T01:43:52;5.40;99.90
23562;DHT22;11959;49.418;8.728;2024-03-02T01:46:17;5.40;99.90
23562;DHT22;11959;49.418;8.728;2024-03-02T01:48:43;5.40;99.90
23562;DHT22;11959;49.418;8.728;2024-03-02T01:51:09;5.40;99.90
23562;DHT22;11959;49.418;8.728;2024-03-02T01:53:35;5.40;99.90
23562;DHT22;11959;49.418;8.728;2024-03-02T01:56:01;5.30;99.90
23562;DHT22;11959;49.418;8.728;2024-03-02T01:58:28;5.40;99.90
23562;DHT22;11959;49.418;8.728;2024-03-02T02:00:53;5.30;99.90
23562;DHT22;11959;49.418;8.728;2024-03-02T02:03:19;5.30;99.90
23562;DHT22;11959;49.418;8.728;2024-03-02T02:05:45;5.20;99.90
23562;DHT22;11959;49.418;8.728;2024-03-02T02:08:12;5.20;99.90
23562;DHT22;11959;49.418;8.728;2024-03-02T02:10:38;5.20;99.90
23562;DHT22;11959;49.418;8.728;2024-03-02T02:13:03;5.20;99.90
23562;DHT22;11959;49.418;8.728;2024-03-02T02:15:30;5.20;99.90
23562;DHT22;11959;49.418;8.728;2024-03-02T02:17:57;5.20;99.90
23562;DHT22;11959;49.418;8.728;2024-03-02T02:20:23;5.10;99.90
23562;DHT22;11959;49.418;8.728;2024-03-02T02:23:00;5.10;99.90
23562;DHT22;11959;49.418;8.728;2024-03-02T02:25:26;5.10;99.90
23562;DHT22;11959;49.418;8.728;2024-03-02T02:27:52;5.10;99.90
23562;DHT22;11959;49.418;8.728;2024-03-02T02:30:23;5.10;99.90
23562;DHT22;11959;49.418;8.728;2024-03-02T02:32:49;5.10;99.90
23562;DHT22;11959;49.418;8.728;2024-03-02T02:35:15;5.10;99.90
23562;DHT22;11959;49.418;8.728;2024-03-02T02:37:41;5.00;99.90
23562;DHT22;11959;49.418;8.728;2024-03-02T02:40:07;5.00;99.90
23562;DHT22;11959;49.418;8.728;2024-03-02T02:42:33;5.00;99.90
23562;DHT22;11959;49.418;8.728;2024-03-02T02:44:58;4.90;99.90
23562;DHT22;11959;49.418;8.728;2024-03-02T02:47:25;4.90;99.90
23562;DHT22;11959;49.418;8.728;2024-03-02T02:49:51;4.90;99.90
23562;DHT22;11959;49.418;8.728;2024-03-02T02:52:16;4.90;99.90
23562;DHT22;11959;49.418;8.728;2024-03-02T02:54:42;4.80;99.90
23562;DHT22;11959;49.418;8.728;2024-03-02T02:57:08;4.80;99.90
23562;DHT22;11959;49.418;8.728;2024-03-02T02:59:35;4.90;99.90
23562;DHT22;11959;49.418;8.728;2024-03-02T03:02:02;4.90;99.90
23562;DHT22;11959;49.418;8.728;2024-03-02T03:04:27;4.90;99.90
23562;DHT22;11959;49.418;8.728;2024-03-02T03:06:53;4.90;99.90
23562;DHT22;11959;49.418;8.728;2024-03-02T03:09:19;4.80;99.90
23562;DHT22;11959;49.418;8.728;2024-03-02T03:11:44;4.80;99.90
23562;DHT22;11959;49.418;8.728;2024-03-02T03:14:10;4.80;99.90
23562;DHT22;11959;49.418;8.728;2024-03-02T03:16:35;4.70;99.90
23562;DHT22;11959;49.418;8.728;2024-03-02T03:19:01;4.70;99.90
23562;DHT22;11959;49.418;8.728;2024-03-02T03:21:27;4.70;99.90
23562;DHT22;11959;49.418;8.728;2024-03-02T03:23:52;4.70;99.90
23562;DHT22;11959;49.418;8.728;2024-03-02T03:26:18;4.70;99.90
23562;DHT22;11959;49.418;8.728;2024-03-02T03:28:43;4.70;99.90
23562;DHT22;11959;49.418;8.728;2024-03-02T03:31:09;4.70;99.90
23562;DHT22;11959;49.418;8.728;2024-03-02T03:33:36;4.70;99.90
23562;DHT22;11959;49.418;8.728;2024-03-02T03:36:01;4.80;99.90
23562;DHT22;11959;49.418;8.728;2024-03-02T03:38:29;4.90;99.90
23562;DHT22;11959;49.418;8.728;2024-03-02T03:40:54;4.90;99.90
23562;DHT22;11959;49.418;8.728;2024-03-02T03:43:20;5.00;99.90
23562;DHT22;11959;49.418;8.728;2024-03-02T03:45:46;4.90;99.90
23562;DHT22;11959;49.418;8.728;2024-03-02T03:48:11;4.90;99.90
23562;DHT22;11959;49.418;8.728;2024-03-02T03:50:37;5.00;99.90
23562;DHT22;11959;49.418;8.728;2024-03-02T03:53:03;5.10;99.90
23562;DHT22;11959;49.418;8.728;2024-03-02T03:55:29;5.10;99.90
23562;DHT22;11959;49.418;8.728;2024-03-02T03:57:54;5.10;99.90
23562;DHT22;11959;49.418;8.728;2024-03-02T04:00:20;5.10;99.90
23562;DHT22;11959;49.418;8.728;2024-03-02T04:02:46;5.10;99.90
23562;DHT22;11959;49.418;8.728;2024-03-02T04:05:11;5.20;99.90
23562;DHT22;11959;49.418;8.728;2024-03-02T04:07:37;5.20;99.90
23562;DHT22;11959;49.418;8.728;2024-03-02T04:10:12;5.20;99.90
23562;DHT22;11959;49.418;8.728;2024-03-02T04:12:38;5.20;99.90
23562;DHT22;11959;49.418;8.728;2024-03-02T04:15:07;5.20;99.90
23562;DHT22;11959;49.418;8.728;2024-03-02T04:17:33;5.20;99.90
23562;DHT22;11959;49.418;8.728;2024-03-02T04:19:59;5.20;99.90
23562;DHT22;11959;49.418;8.728;2024-03-02T04:22:27;5.10;99.90
23562;DHT22;11959;49.418;8.728;2024-03-02T04:24:52;5.10;99.90
23562;DHT22;11959;49.418;8.728;2024-03-02T04:27:18;5.10;99.90
23562;DHT22;11959;49.418;8.728;2024-03-02T04:29:44;5.10;99.90
23562;DHT22;11959;49.418;8.728;2024-03-02T04:32:09;5.20;99.90
23562;DHT22;11959;49.418;8.728;2024-03-02T04:34:35;5.20;99.90
23562;DHT22;11959;49.418;8.728;2024-03-02T04:37:01;5.20;99.90
23562;DHT22;11959;49.418;8.728;2024-03-02T04:39:26;5.20;99.90
23562;DHT22;11959;49.418;8.728;2024-03-02T04:41:52;5.20;99.90
23562;DHT22;11959;49.418;8.728;2024-03-02T04:44:18;5.30;99.90
23562;DHT22;11959;49.418;8.728;2024-03-02T04:46:43;5.30;99.90
23562;DHT22;11959;49.418;8.728;2024-03-02T04:49:09;5.40;99.90
23562;DHT22;11959;49.418;8.728;2024-03-02T04:51:35;5.30;99.90
23562;DHT22;11959;49.418;8.728;2024-03-02T04:54:01;5.40;99.90
23562;DHT22;11959;49.418;8.728;2024-03-02T04:56:26;5.40;99.90
23562;DHT22;11959;49.418;8.728;2024-03-02T04:58:58;5.40;99.90
23562;DHT22;11959;49.418;8.728;2024-03-02T05:01:23;5.40;99.90
23562;DHT22;11959;49.418;8.728;2024-03-02T05:03:49;5.40;99.90
23562;DHT22;11959;49.418;8.728;2024-03-02T05:06:14;5.40;99.90
23562;DHT22;11959;49.418;8.728;2024-03-02T05:08:40;5.40;99.90
23562;DHT22;11959;49.418;8.728;2024-03-02T05:11:06;5.30;99.90
23562;DHT22;11959;49.418;8.728;2024-03-02T05:13:50;5.30;99.90
23562;DHT22;11959;49.418;8.728;2024-03-02T05:16:15;5.20;99.90
23562;DHT22;11959;49.418;8.728;2024-03-02T05:18:41;5.20;99.90
23562;DHT22;11959;49.418;8.728;2024-03-02T05:21:06;5.10;99.90
23562;DHT22;11959;49.418;8.728;2024-03-02T05:23:32;5.20;99.90
23562;DHT22;11959;49.418;8.728;2024-03-02T05:25:58;5.20;99.90
23562;DHT22;11959;49.418;8.728;2024-03-02T05:28:24;5.10;99.90
23562;DHT22;11959;49.418;8.728;2024-03-02T05:30:50;5.20;99.90
23562;DHT22;11959;49.418;8.728;2024-03-02T05:33:15;5.20;99.90
23562;DHT22;11959;49.418;8.728;2024-03-02T05:35:41;5.20;99.90
23562;DHT22;11959;49.418;8.728;2024-03-02T05:38:06;5.20;99.90
23562;DHT22;11959;49.418;8.728;2024-03-02T05:40:32;5.20;99.90
23562;DHT22;11959;49.418;8.728;2024-03-02T05:42:58;5.20;99.90
23562;DHT22;11959;49.418;8.728;2024-03-02T05:45:23;5.20;99.90
23562;DHT22;11959;49.418;8.728;2024-03-02T05:47:49;5.30;99.90
23562;DHT22;11959;49.418;8.728;2024-03-02T05:50:15;5.30;99.90
23562;DHT22;11959;49.418;8.728;2024-03-02T05:52:40;5.30;99.90
23562;DHT22;11959;49.418;8.728;2024-03-02T05:55:06;5.30;99.90
23562;DHT22;11959;49.418;8.728;2024-03-02T05:57:32;5.20;99.90
23562;DHT22;11959;49.418;8.728;2024-03-02T06:00:09;5.20;99.90
23562;DHT22;11959;49.418;8.728;2024-03-02T06:02:39;5.30;99.90
23562;DHT22;11959;49.418;8.728;2024-03-02T06:05:06;5.30;99.90
23562;DHT22;11959;49.418;8.728;2024-03-02T06:07:32;5.30;99.90
23562;DHT22;11959;49.418;8.728;2024-03-02T06:09:58;5.20;99.90
23562;DHT22;11959;49.418;8.728;2024-03-02T06:12:24;5.20;99.90
23562;DHT22;11959;49.418;8.728;2024-03-02T06:14:49;5.20;99.90
23562;DHT22;11959;49.418;8.728;2024-03-02T06:17:15;5.20;99.90
23562;DHT22;11959;49.418;8.728;2024-03-02T06:19:40;5.10;99.90
23562;DHT22;11959;49.418;8.728;2024-03-02T06:22:06;5.10;99.90
23562;DHT22;11959;49.418;8.728;2024-03-02T06:24:37;5.10;99.90
23562;DHT22;11959;49.418;8.728;2024-03-02T06:27:05;5.10;99.90
23562;DHT22;11959;49.418;8.728;2024-03-02T06:29:34;5.10;99.90
23562;DHT22;11959;49.418;8.728;2024-03-02T06:32:00;5.10;99.90
23562;DHT22;11959;49.418;8.728;2024-03-02T06:34:25;5.00;99.90
23562;DHT22;11959;49.418;8.728;2024-03-02T06:36:51;5.00;99.90
23562;DHT22;11959;49.418;8.728;2024-03-02T06:39:16;5.00;99.90
23562;DHT22;11959;49.418;8.728;2024-03-02T06:41:42;5.00;99.90
23562;DHT22;11959;49.418;8.728;2024-03-02T06:44:08;5.00;99.90
23562;DHT22;11959;49.418;8.728;2024-03-02T06:46:34;5.00;99.90
23562;DHT22;11959;49.418;8.728;2024-03-02T06:48:59;5.00;99.90
23562;DHT22;11959;49.418;8.728;2024-03-02T06:51:27;5.00;99.90
23562;DHT22;11959;49.418;8.728;2024-03-02T06:53:53;5.00;99.90
23562;DHT22;11959;49.418;8.728;2024-03-02T06:56:18;4.90;99.90
23562;DHT22;11959;49.418;8.728;2024-03-02T06:58:44;5.00;99.90
23562;DHT22;11959;49.418;8.728;2024-03-02T07:01:10;5.10;99.90
23562;DHT22;11959;49.418;8.728;2024-03-02T07:03:35;5.10;99.90
23562;DHT22;11959;49.418;8.728;2024-03-02T07:06:01;5.10;99.90
23562;DHT22;11959;49.418;8.728;2024-03-02T07:08:26;5.20;99.90
23562;DHT22;11959;49.418;8.728;2024-03-02T07:10:52;5.20;99.90
23562;DHT22;11959;49.418;8.728;2024-03-02T07:13:18;5.20;99.90
23562;DHT22;11959;49.418;8.728;2024-03-02T07:15:44;5.20;99.90
23562;DHT22;11959;49.418;8.728;2024-03-02T07:18:30;5.20;99.90
23562;DHT22;11959;49.418;8.728;2024-03-02T07:20:56;5.30;99.90
23562;DHT22;11959;49.418;8.728;2024-03-02T07:23:26;5.30;99.90
23562;DHT22;11959;49.418;8.728;2024-03-02T07:25:56;5.30;99.90
23562;DHT22;11959;49.418;8.728;2024-03-02T07:28:27;5.40;99.90
23562;DHT22;11959;49.418;8.728;2024-03-02T07:31:00;5.40;99.90
23562;DHT22;11959;49.418;8.728;2024-03-02T07:33:26;5.50;99.90
23562;DHT22;11959;49.418;8.728;2024-03-02T07:35:53;5.50;99.90
23562;DHT22;11959;49.418;8.728;2024-03-02T07:38:19;5.60;99.90
23562;DHT22;11959;49.418;8.728;2024-03-02T07:40:45;5.60;99.90
23562;DHT22;11959;49.418;8.728;2024-03-02T07:43:11;5.60;99.90
23562;DHT22;11959;49.418;8.728;2024-03-02T07:45:36;5.70;99.90
23562;DHT22;11959;49.418;8.728;2024-03-02T07:48:02;5.70;99.90
23562;DHT22;11959;49.418;8.728;2024-03-02T07:50:31;5.80;99.90
23562;DHT22;11959;49.418;8.728;2024-03-02T07:52:56;5.80;99.90
23562;DHT22;11959;49.418;8.728;2024-03-02T07:55:22;5.80;99.90
23562;DHT22;11959;49.418;8.728;2024-03-02T07:57:50;5.90;99.90
23562;DHT22;11959;49.418;8.728;2024-03-02T08:00:16;5.90;99.90
23562;DHT22;11959;49.418;8.728;2024-03-02T08:02:41;5.90;99.90
23562;DHT22;11959;49.418;8.728;2024-03-02T08:05:10;5.90;99.90
23562;DHT22;11959;49.418;8.728;2024-03-02T08:07:35;5.90;99.90
23562;DHT22;11959;49.418;8.728;2024-03-02T08:10:01;6.00;99.90
23562;DHT22;11959;49.418;8.728;2024-03-02T08:12:27;6.00;99.90
23562;DHT22;11959;49.418;8.728;2024-03-02T08:14:52;6.00;99.90
23562;DHT22;11959;49.418;8.728;2024-03-02T08:17:18;6.00;99.90
23562;DHT22;11959;49.418;8.728;2024-03-02T08:19:44;5.90;99.90
23562;DHT22;11959;49.418;8.728;2024-03-02T08:22:10;6.00;99.90
23562;DHT22;11959;49.418;8.728;2024-03-02T08:24:36;6.10;99.90
23562;DHT22;11959;49.418;8.728;2024-03-02T08:27:02;6.20;99.90
23562;DHT22;11959;49.418;8.728;2024-03-02T08:29:27;6.20;99.90
23562;DHT22;11959;49.418;8.728;2024-03-02T08:31:54;6.30;99.90
23562;DHT22;11959;49.418;8.728;2024-03-02T08:34:19;6.40;99.90
23562;DHT22;11959;49.418;8.728;2024-03-02T08:36:46;6.50;99.90
23562;DHT22;11959;49.418;8.728;2024-03-02T08:39:12;6.50;99.90
23562;DHT22;11959;49.418;8.728;2024-03-02T08:41:50;6.70;99.90
23562;DHT22;11959;49.418;8.728;2024-03-02T08:44:16;6.70;99.90
23562;DHT22;11959;49.418;8.728;2024-03-02T08:46:42;6.90;99.90
23562;DHT22;11959;49.418;8.728;2024-03-02T08:49:07;6.90;99.90
23562;DHT22;11959;49.418;8.728;2024-03-02T08:51:33;7.10;99.90
23562;DHT22;11959;49.418;8.728;2024-03-02T08:53:59;7.20;99.90
23562;DHT22;11959;49.418;8.728;2024-03-02T08:56:25;7.30;99.90
23562;DHT22;11959;49.418;8.728;2024-03-02T08:58:51;7.50;99.90
23562;DHT22;11959;49.418;8.728;2024-03-02T09:01:18;7.60;99.90
23562;DHT22;11959;49.418;8.728;2024-03-02T09:03:45;7.80;99.90
23562;DHT22;11959;49.418;8.728;2024-03-02T09:06:11;7.80;99.90
23562;DHT22;11959;49.418;8.728;2024-03-02T09:08:37;7.90;99.90
23562;DHT22;11959;49.418;8.728;2024-03-02T09:11:04;8.10;99.90
23562;DHT22;11959;49.418;8.728;2024-03-02T09:13:31;8.10;99.90
23562;DHT22;11959;49.418;8.728;2024-03-02T09:15:56;8.20;99.90
23562;DHT22;11959;49.418;8.728;2024-03-02T09:18:22;8.20;99.90
23562;DHT22;11959;49.418;8.728;2024-03-02T09:20:48;8.30;99.90
23562;DHT22;11959;49.418;8.728;2024-03-02T09:23:13;8.40;99.90
23562;DHT22;11959;49.418;8.728;2024-03-02T09:25:39;8.40;99.90
23562;DHT22;11959;49.418;8.728;2024-03-02T09:28:05;8.50;99.90
23562;DHT22;11959;49.418;8.728;2024-03-02T09:30:31;8.50;99.90
23562;DHT22;11959;49.418;8.728;2024-03-02T09:32:56;8.60;99.90
23562;DHT22;11959;49.418;8.728;2024-03-02T09:35:22;8.60;99.90
23562;DHT22;11959;49.418;8.728;2024-03-02T09:37:47;8.70;99.90
23562;DHT22;11959;49.418;8.728;2024-03-02T09:40:13;8.80;99.90
23562;DHT22;11959;49.418;8.728;2024-03-02T09:42:40;8.90;99.90
23562;DHT22;11959;49.418;8.728;2024-03-02T09:45:06;8.90;99.90
23562;DHT22;11959;49.418;8.728;2024-03-02T09:47:32;8.90;99.90
23562;DHT22;11959;49.418;8.728;2024-03-02T09:49:58;9.00;99.90
23562;DHT22;11959;49.418;8.728;2024-03-02T09:52:24;9.10;99.90
23562;DHT22;11959;49.418;8.728;2024-03-02T09:54:50;9.10;99.90
23562;DHT22;11959;49.418;8.728;2024-03-02T09:57:16;9.20;99.90
23562;DHT22;11959;49.418;8.728;2024-03-02T09:59:42;9.30;99.90
23562;DHT22;11959;49.418;8.728;2024-03-02T10:02:08;9.30;99.90
23562;DHT22;11959;49.418;8.728;2024-03-02T10:04:34;9.40;99.90
23562;DHT22;11959;49.418;8.728;2024-03-02T10:07:14;9.60;99.90
23562;DHT22;11959;49.418;8.728;2024-03-02T10:09:47;9.70;99.90
23562;DHT22;11959;49.418;8.728;2024-03-02T10:12:15;9.70;99.90
23562;DHT22;11959;49.418;8.728;2024-03-02T10:14:41;9.80;99.90
23562;DHT22;11959;49.418;8.728;2024-03-02T10:17:11;9.90;99.90
23562;DHT22;11959;49.418;8.728;2024-03-02T10:19:38;9.90;99.90
23562;DHT22;11959;49.418;8.728;2024-03-02T10:22:06;10.00;99.90
23562;DHT22;11959;49.418;8.728;2024-03-02T10:24:41;10.10;99.90
23562;DHT22;11959;49.418;8.728;2024-03-02T10:27:27;10.30;99.90
23562;DHT22;11959;49.418;8.728;2024-03-02T10:29:54;10.30;99.90
23562;DHT22;11959;49.418;8.728;2024-03-02T10:32:22;10.40;99.90
23562;DHT22;11959;49.418;8.728;2024-03-02T10:34:48;10.50;99.90
23562;DHT22;11959;49.418;8.728;2024-03-02T10:37:14;10.60;99.90
23562;DHT22;11959;49.418;8.728;2024-03-02T10:39:40;10.60;99.90
23562;DHT22;11959;49.418;8.728;2024-03-02T10:42:06;10.60;99.90
23562;DHT22;11959;49.418;8.728;2024-03-02T10:44:33;10.70;99.90
23562;DHT22;11959;49.418;8.728;2024-03-02T10:47:04;10.80;99.90
23562;DHT22;11959;49.418;8.728;2024-03-02T10:49:31;10.80;99.90
23562;DHT22;11959;49.418;8.728;2024-03-02T10:51:58;10.90;99.90
23562;DHT22;11959;49.418;8.728;2024-03-02T10:54:26;11.00;99.90
23562;DHT22;11959;49.418;8.728;2024-03-02T10:56:53;11.00;99.90
23562;DHT22;11959;49.418;8.728;2024-03-02T10:59:36;11.20;99.90
23562;DHT22;11959;49.418;8.728;2024-03-02T11:02:04;11.20;99.90
23562;DHT22;11959;49.418;8.728;2024-03-02T11:04:33;11.20;99.90
23562;DHT22;11959;49.418;8.728;2024-03-02T11:07:03;11.30;99.90
23562;DHT22;11959;49.418;8.728;2024-03-02T11:09:30;11.40;99.90
23562;DHT22;11959;49.418;8.728;2024-03-02T11:12:19;11.40;99.90
23562;DHT22;11959;49.418;8.728;2024-03-02T11:14:48;11.50;99.90
23562;DHT22;11959;49.418;8.728;2024-03-02T11:17:17;11.60;99.90
23562;DHT22;11959;49.418;8.728;2024-03-02T11:19:44;11.70;99.90
23562;DHT22;11959;49.418;8.728;2024-03-02T11:22:11;11.70;99.90
23562;DHT22;11959;49.418;8.728;2024-03-02T11:24:37;11.80;99.90
23562;DHT22;11959;49.418;8.728;2024-03-02T11:27:04;11.80;99.90
23562;DHT22;11959;49.418;8.728;2024-03-02T11:32:17;12.00;99.90
23562;DHT22;11959;49.418;8.728;2024-03-02T11:34:45;12.20;99.90
23562;DHT22;11959;49.418;8.728;2024-03-02T11:37:19;12.20;99.90
23562;DHT22;11959;49.418;8.728;2024-03-02T11:39:50;12.30;99.90
23562;DHT22;11959;49.418;8.728;2024-03-02T11:42:16;12.40;99.90
23562;DHT22;11959;49.418;8.728;2024-03-02T11:44:45;12.40;99.90
23562;DHT22;11959;49.418;8.728;2024-03-02T11:47:12;12.50;99.90
23562;DHT22;11959;49.418;8.728;2024-03-02T11:49:49;12.50;99.90
23562;DHT22;11959;49.418;8.728;2024-03-02T11:52:16;12.50;99.90
23562;DHT22;11959;49.418;8.728;2024-03-02T11:54:45;12.50;99.90
23562;DHT22;11959;49.418;8.728;2024-03-02T11:57:15;12.60;99.90
23562;DHT22;11959;49.418;8.728;2024-03-02T11:59:41;12.70;99.90
23562;DHT22;11959;49.418;8.728;2024-03-02T12:02:16;12.70;99.90
23562;DHT22;11959;49.418;8.728;2024-03-02T12:04:45;12.80;99.90
23562;DHT22;11959;49.418;8.728;2024-03-02T12:07:11;12.80;99.90
23562;DHT22;11959;49.418;8.728;2024-03-02T12:09:37;12.90;99.90
23562;DHT22;11959;49.418;8.728;2024-03-02T12:12:08;13.00;99.90
23562;DHT22;11959;49.418;8.728;2024-03-02T12:14:35;13.00;99.90
23562;DHT22;11959;49.418;8.728;2024-03-02T12:17:01;13.10;99.90
23562;DHT22;11959;49.418;8.728;2024-03-02T12:19:28;13.10;99.90
23562;DHT22;11959;49.418;8.728;2024-03-02T12:21:56;13.10;99.90
23562;DHT22;11959;49.418;8.728;2024-03-02T12:24:21;13.10;99.90
23562;DHT22;11959;49.418;8.728;2024-03-02T12:26:51;13.20;99.90
23562;DHT22;11959;49.418;8.728;2024-03-02T12:29:21;13.20;99.90
23562;DHT22;11959;49.418;8.728;2024-03-02T12:31:53;13.30;99.90
23562;DHT22;11959;49.418;8.728;2024-03-02T12:34:19;13.30;99.90
23562;DHT22;11959;49.418;8.728;2024-03-02T12:36:46;13.40;99.90
23562;DHT22;11959;49.418;8.728;2024-03-02T12:39:18;13.40;99.90
23562;DHT22;11959;49.418;8.728;2024-03-02T12:41:48;13.50;99.90
23562;DHT22;11959;49.418;8.728;2024-03-02T12:44:16;13.50;99.90
23562;DHT22;11959;49.418;8.728;2024-03-02T12:46:42;13.50;99.90
23562;DHT22;11959;49.418;8.728;2024-03-02T12:49:15;13.60;99.90
23562;DHT22;11959;49.418;8.728;2024-03-02T12:51:46;13.60;99.90
23562;DHT22;11959;49.418;8.728;2024-03-02T12:54:17;13.60;99.90
23562;DHT22;11959;49.418;8.728;2024-03-02T12:56:43;13.60;99.90
23562;DHT22;11959;49.418;8.728;2024-03-02T12:59:26;13.70;99.90
23562;DHT22;11959;49.418;8.728;2024-03-02T13:01:53;13.80;99.90
23562;DHT22;11959;49.418;8.728;2024-03-02T13:04:30;13.80;99.90
23562;DHT22;11959;49.418;8.728;2024-03-02T13:06:56;13.80;99.90
23562;DHT22;11959;49.418;8.728;2024-03-02T13:09:25;13.80;99.90
23562;DHT22;11959;49.418;8.728;2024-03-02T13:11:52;13.90;99.90
23562;DHT22;11959;49.418;8.728;2024-03-02T13:14:17;14.00;99.90
23562;DHT22;11959;49.418;8.728;2024-03-02T13:16:44;14.00;99.90
23562;DHT22;11959;49.418;8.728;2024-03-02T13:19:13;14.00;99.90
23562;DHT22;11959;49.418;8.728;2024-03-02T13:21:39;14.00;99.90
23562;DHT22;11959;49.418;8.728;2024-03-02T13:24:05;14.00;99.90
23562;DHT22;11959;49.418;8.728;2024-03-02T13:26:31;14.00;99.90
23562;DHT22;11959;49.418;8.728;2024-03-02T13:28:57;14.10;99.90
23562;DHT22;11959;49.418;8.728;2024-03-02T13:31:23;14.10;99.90
23562;DHT22;11959;49.418;8.728;2024-03-02T13:33:48;14.10;99.90
23562;DHT22;11959;49.418;8.728;2024-03-02T13:36:16;14.00;99.90
23562;DHT22;11959;49.418;8.728;2024-03-02T13:38:43;14.10;99.90
23562;DHT22;11959;49.418;8.728;2024-03-02T13:41:09;14.00;99.90
23562;DHT22;11959;49.418;8.728;2024-03-02T13:43:36;14.10;99.90
23562;DHT22;11959;49.418;8.728;2024-03-02T13:46:03;14.10;99.90
23562;DHT22;11959;49.418;8.728;2024-03-02T13:48:29;14.20;99.90
23562;DHT22;11959;49.418;8.728;2024-03-02T13:50:56;14.20;99.90
23562;DHT22;11959;49.418;8.728;2024-03-02T13:53:22;14.30;99.90
23562;DHT22;11959;49.418;8.728;2024-03-02T13:55:47;14.30;99.90
23562;DHT22;11959;49.418;8.728;2024-03-02T13:58:13;14.30;99.90
23562;DHT22;11959;49.418;8.728;2024-03-02T14:00:39;14.30;99.90
23562;DHT22;11959;49.418;8.728;2024-03-02T14:03:06;14.40;99.90
23562;DHT22;11959;49.418;8.728;2024-03-02T14:05:32;14.40;99.90
23562;DHT22;11959;49.418;8.728;2024-03-02T14:07:58;14.40;99.90
23562;DHT22;11959;49.418;8.728;2024-03-02T14:10:27;14.40;99.90
23562;DHT22;11959;49.418;8.728;2024-03-02T14:12:53;14.40;99.90
23562;DHT22;11959;49.418;8.728;2024-03-02T14:15:22;14.40;99.90
23562;DHT22;11959;49.418;8.728;2024-03-02T14:17:48;14.30;99.90
23562;DHT22;11959;49.418;8.728;2024-03-02T14:20:14;14.30;99.90
23562;DHT22;11959;49.418;8.728;2024-03-02T14:22:40;14.20;99.90
23562;DHT22;11959;49.418;8.728;2024-03-02T14:25:06;14.40;99.90
23562;DHT22;11959;49.418;8.728;2024-03-02T14:27:34;14.40;99.90
23562;DHT22;11959;49.418;8.728;2024-03-02T14:30:01;14.30;99.90
23562;DHT22;11959;49.418;8.728;2024-03-02T14:32:26;14.20;99.90
23562;DHT22;11959;49.418;8.728;2024-03-02T14:34:52;14.20;99.90
23562;DHT22;11959;49.418;8.728;2024-03-02T14:37:17;14.20;99.90
23562;DHT22;11959;49.418;8.728;2024-03-02T14:39:43;14.10;99.90
23562;DHT22;11959;49.418;8.728;2024-03-02T14:42:09;14.20;99.90
23562;DHT22;11959;49.418;8.728;2024-03-02T14:44:35;14.10;99.90
23562;DHT22;11959;49.418;8.728;2024-03-02T14:47:03;14.10;99.90
23562;DHT22;11959;49.418;8.728;2024-03-02T14:49:30;14.00;99.90
23562;DHT22;11959;49.418;8.728;2024-03-02T14:51:56;14.10;99.90
23562;DHT22;11959;49.418;8.728;2024-03-02T14:54:22;14.00;99.90
23562;DHT22;11959;49.418;8.728;2024-03-02T14:56:47;14.10;99.90
23562;DHT22;11959;49.418;8.728;2024-03-02T14:59:13;14.20;99.90
23562;DHT22;11959;49.418;8.728;2024-03-02T15:01:39;14.30;99.90
23562;DHT22;11959;49.418;8.728;2024-03-02T15:04:05;14.50;99.90
23562;DHT22;11959;49.418;8.728;2024-03-02T15:06:30;14.60;99.90
23562;DHT22;11959;49.418;8.728;2024-03-02T15:08:56;14.70;99.90
23562;DHT22;11959;49.418;8.728;2024-03-02T15:11:22;14.60;99.90
23562;DHT22;11959;49.418;8.728;2024-03-02T15:13:48;14.60;99.90
23562;DHT22;11959;49.418;8.728;2024-03-02T15:16:14;14.60;99.90
23562;DHT22;11959;49.418;8.728;2024-03-02T15:18:39;14.50;99.90
23562;DHT22;11959;49.418;8.728;2024-03-02T15:21:05;14.50;99.90
23562;DHT22;11959;49.418;8.728;2024-03-02T15:23:33;14.50;99.90
23562;DHT22;11959;49.418;8.728;2024-03-02T15:25:59;14.40;99.90
23562;DHT22;11959;49.418;8.728;2024-03-02T15:28:25;14.20;99.90
23562;DHT22;11959;49.418;8.728;2024-03-02T15:30:51;14.20;99.90
23562;DHT22;11959;49.418;8.728;2024-03-02T15:33:17;14.00;99.90
23562;DHT22;11959;49.418;8.728;2024-03-02T15:35:43;13.70;99.90
23562;DHT22;11959;49.418;8.728;2024-03-02T15:38:09;13.50;99.90
23562;DHT22;11959;49.418;8.728;2024-03-02T15:40:37;13.30;99.90
23562;DHT22;11959;49.418;8.728;2024-03-02T15:43:03;13.10;99.90
23562;DHT22;11959;49.418;8.728;2024-03-02T15:45:29;12.90;99.90